Terminal Aerodrome Forecast
Issued by NWS

Home | Current Version | Previous Version | Graphics & Text | Print | Product List | Glossary On
Versions: 1 2 3 4 5 6 7 8 9 10 11 12 13 14
520
FTUS43 KBIS 230528
TAFDIK
TAF
KDIK 230528Z 2306/2406 31022G32KT P6SM SCT010 OVC020
     FM231200 31018G28KT P6SM SCT020 BKN045
     FM231400 31020G29KT P6SM FEW025 SCT080
     FM240200 32013KT P6SM FEW060 FEW200
     FM240400 31009KT P6SM FEW200=

USA.gov is the U.S. government's official web portal to all federal, state and local government web resources and services.